createdAt,value
2018-07-05T00:01:23.890Z,19.10
2018-07-05T00:04:09.814Z,18.90
2018-07-05T00:06:55.851Z,18.80
2018-07-05T00:09:41.945Z,18.80
2018-07-05T00:12:27.992Z,18.80
2018-07-05T00:15:14.195Z,18.70
2018-07-05T00:18:00.107Z,19.00
2018-07-05T00:20:46.943Z,18.80
2018-07-05T00:23:33.038Z,18.70
2018-07-05T00:26:19.069Z,18.70
2018-07-05T00:29:05.071Z,19.00
2018-07-05T00:31:51.078Z,18.80
2018-07-05T00:34:37.105Z,18.60
2018-07-05T00:37:23.015Z,18.80
2018-07-05T00:40:09.114Z,18.70
2018-07-05T00:42:55.238Z,18.50
2018-07-05T00:45:41.026Z,18.60
2018-07-05T00:48:27.101Z,18.70
2018-07-05T00:51:12.951Z,18.70
2018-07-05T00:53:58.971Z,18.50
2018-07-05T00:56:44.859Z,18.40
2018-07-05T00:59:30.839Z,18.60
2018-07-05T01:02:17.337Z,18.50
2018-07-05T01:05:03.385Z,18.30
2018-07-05T01:07:49.398Z,18.30
2018-07-05T01:10:35.421Z,18.20
2018-07-05T01:13:21.445Z,18.00
2018-07-05T01:16:07.474Z,18.20
2018-07-05T01:18:53.522Z,18.20
2018-07-05T01:21:39.548Z,17.90
2018-07-05T01:24:25.499Z,18.30
2018-07-05T01:27:11.419Z,18.50
2018-07-05T01:29:57.446Z,18.30
2018-07-05T01:32:43.423Z,18.30
2018-07-05T01:35:29.413Z,18.40
2018-07-05T01:38:15.406Z,18.40
2018-07-05T01:41:01.386Z,18.00
2018-07-05T01:43:47.765Z,17.90
2018-07-05T01:46:33.788Z,17.90
2018-07-05T01:49:19.862Z,17.80
2018-07-05T01:52:10.034Z,17.90
2018-07-05T01:54:55.911Z,17.90
2018-07-05T01:57:41.727Z,17.70
2018-07-05T02:00:27.742Z,18.00
2018-07-05T02:03:13.729Z,18.30
2018-07-05T02:05:59.683Z,18.40
2018-07-05T02:08:45.649Z,18.40
2018-07-05T02:11:31.620Z,18.30
2018-07-05T02:14:17.563Z,18.00
2018-07-05T02:17:03.516Z,17.80
2018-07-05T02:19:49.435Z,17.60
2018-07-05T02:22:35.303Z,17.50
2018-07-05T02:25:21.156Z,17.40
2018-07-05T02:28:07.214Z,17.40
2018-07-05T02:30:53.110Z,17.40
2018-07-05T02:33:39.091Z,17.20
2018-07-05T02:36:24.927Z,17.20
2018-07-05T02:39:16.220Z,16.90
2018-07-05T02:42:02.194Z,16.70
2018-07-05T02:44:48.103Z,16.60
2018-07-05T02:47:34.034Z,16.70
2018-07-05T02:50:19.998Z,16.60
2018-07-05T02:53:05.984Z,16.60
2018-07-05T02:55:45.913Z,16.70
2018-07-05T02:58:31.958Z,17.00
2018-07-05T03:01:17.729Z,17.10
2018-07-05T03:04:03.662Z,17.10
2018-07-05T03:06:49.464Z,17.20
2018-07-05T03:09:35.378Z,17.20
2018-07-05T03:12:21.270Z,17.20
2018-07-05T03:15:07.125Z,17.10
2018-07-05T03:17:53.116Z,17.10
2018-07-05T03:20:39.189Z,17.10
2018-07-05T03:23:25.023Z,17.40
2018-07-05T03:26:10.948Z,17.40
2018-07-05T03:28:56.870Z,17.20
2018-07-05T03:31:42.974Z,17.10
2018-07-05T03:34:28.968Z,17.30
2018-07-05T03:37:14.795Z,17.70
2018-07-05T03:40:00.683Z,17.80
2018-07-05T03:42:46.603Z,17.80
2018-07-05T03:45:32.577Z,17.60
2018-07-05T03:48:18.453Z,17.30
2018-07-05T03:51:04.382Z,17.20
2018-07-05T03:53:50.367Z,17.20
2018-07-05T03:56:36.301Z,17.00
2018-07-05T03:59:22.198Z,17.10
2018-07-05T04:02:02.105Z,17.60
2018-07-05T04:04:48.088Z,17.50
2018-07-05T04:07:34.162Z,17.30
2018-07-05T04:10:20.049Z,17.20
2018-07-05T04:13:05.845Z,17.30
2018-07-05T04:15:51.698Z,17.40
2018-07-05T04:18:37.641Z,17.40
2018-07-05T04:21:23.562Z,17.20
2018-07-05T04:24:09.497Z,17.60
2018-07-05T04:26:55.779Z,17.60
2018-07-05T04:29:41.663Z,17.50
2018-07-05T04:32:27.453Z,17.60
2018-07-05T04:35:13.361Z,17.60
2018-07-05T04:37:59.326Z,17.70
2018-07-05T04:40:45.297Z,17.60
2018-07-05T04:43:31.099Z,17.70
2018-07-05T04:46:17.218Z,17.70
2018-07-05T04:49:03.118Z,17.80
2018-07-05T04:51:48.906Z,17.70
2018-07-05T04:54:34.947Z,17.80
2018-07-05T04:57:20.979Z,18.00
2018-07-05T05:00:06.798Z,18.10
2018-07-05T05:02:52.679Z,18.10
2018-07-05T05:05:38.495Z,18.20
2018-07-05T05:08:24.438Z,18.50
2018-07-05T05:11:10.387Z,18.70
2018-07-05T05:13:56.274Z,18.70
2018-07-05T05:16:42.069Z,18.90
2018-07-05T05:19:27.926Z,19.10
2018-07-05T05:22:13.808Z,19.30
2018-07-05T05:24:59.605Z,19.40
2018-07-05T05:27:45.555Z,19.50
2018-07-05T05:30:31.465Z,19.90
2018-07-05T05:33:17.518Z,19.90
2018-07-05T05:36:03.455Z,20.10
2018-07-05T05:38:49.310Z,19.90
2018-07-05T05:41:35.161Z,19.90
2018-07-05T05:44:21.089Z,20.10
2018-07-05T05:47:07.089Z,20.20
2018-07-05T05:49:52.990Z,20.60
2018-07-05T05:52:38.895Z,20.60
2018-07-05T05:55:24.915Z,20.80
2018-07-05T05:58:10.936Z,20.70
2018-07-05T06:00:57.186Z,20.90
2018-07-05T06:03:43.270Z,21.00
2018-07-05T06:06:29.139Z,21.00
2018-07-05T06:09:15.089Z,21.20
2018-07-05T06:12:01.050Z,21.30
2018-07-05T06:14:46.952Z,21.20
2018-07-05T06:17:32.854Z,21.20
2018-07-05T06:20:18.783Z,21.40
2018-07-05T06:23:04.715Z,21.40
2018-07-05T06:25:50.730Z,21.40
2018-07-05T06:28:36.670Z,21.50
2018-07-05T06:31:22.613Z,21.70
2018-07-05T06:34:08.621Z,21.90
2018-07-05T06:36:54.465Z,22.00
2018-07-05T06:39:40.409Z,22.20
2018-07-05T06:42:26.169Z,22.60
2018-07-05T06:45:12.228Z,22.90
2018-07-05T06:47:58.205Z,22.90
2018-07-05T06:50:44.165Z,22.90
2018-07-05T06:53:30.199Z,23.00
2018-07-05T06:56:16.011Z,22.80
2018-07-05T06:59:01.798Z,22.70
2018-07-05T07:01:47.750Z,22.70
2018-07-05T07:04:33.778Z,22.60
2018-07-05T07:07:19.650Z,22.60
2018-07-05T07:10:05.608Z,22.80
2018-07-05T07:12:51.567Z,22.90
2018-07-05T07:15:37.438Z,23.00
2018-07-05T07:18:23.245Z,23.00
2018-07-05T07:21:09.137Z,23.00
2018-07-05T07:23:55.169Z,22.90
2018-07-05T07:26:41.146Z,23.00
2018-07-05T07:29:27.251Z,23.00
2018-07-05T07:32:13.154Z,22.90
2018-07-05T07:34:58.953Z,22.80
2018-07-05T07:37:44.924Z,22.70
2018-07-05T07:40:30.752Z,22.90
2018-07-05T07:42:58.286Z,23.00
2018-07-05T07:45:25.850Z,22.60
2018-07-05T07:47:53.333Z,22.70
2018-07-05T07:50:20.884Z,22.60
2018-07-05T07:52:48.405Z,22.70
2018-07-05T07:55:16.193Z,22.60
2018-07-05T07:57:43.755Z,22.60
2018-07-05T08:00:11.269Z,22.80
2018-07-05T08:02:38.814Z,22.90
2018-07-05T08:05:06.413Z,22.80
2018-07-05T08:07:33.954Z,23.00
2018-07-05T08:10:01.665Z,23.10
2018-07-05T08:12:29.190Z,23.30
2018-07-05T08:14:56.747Z,23.40
2018-07-05T08:17:24.250Z,23.50
2018-07-05T08:19:51.799Z,23.30
2018-07-05T08:22:20.439Z,23.40
2018-07-05T08:24:47.931Z,23.30
2018-07-05T08:27:15.454Z,23.10
2018-07-05T08:29:42.991Z,23.40
2018-07-05T08:32:10.510Z,23.30
2018-07-05T08:34:38.035Z,23.30
2018-07-05T08:37:05.559Z,23.50
2018-07-05T08:39:34.305Z,23.40
2018-07-05T08:42:01.810Z,23.20
2018-07-05T08:44:29.354Z,23.30
2018-07-05T08:46:56.964Z,23.30
2018-07-05T08:49:24.500Z,23.70
2018-07-05T08:51:52.409Z,24.00
2018-07-05T08:54:19.996Z,24.00
2018-07-05T08:56:47.739Z,23.80
2018-07-05T08:59:15.290Z,23.90
2018-07-05T09:01:42.818Z,23.80
2018-07-05T09:04:10.356Z,24.20
2018-07-05T09:06:37.919Z,24.20
2018-07-05T09:09:05.799Z,24.30
2018-07-05T09:11:33.353Z,24.30
2018-07-05T09:14:00.883Z,24.50
2018-07-05T09:16:28.504Z,24.60
2018-07-05T09:18:56.207Z,24.60
2018-07-05T09:21:23.738Z,24.70
2018-07-05T09:23:51.277Z,24.60
2018-07-05T09:26:19.053Z,24.70
2018-07-05T09:28:46.586Z,24.80
2018-07-05T09:31:15.615Z,25.00
2018-07-05T09:33:44.293Z,24.90
2018-07-05T09:36:11.845Z,25.00
2018-07-05T09:38:39.371Z,25.40
2018-07-05T09:41:07.011Z,25.40
2018-07-05T09:43:34.709Z,25.40
2018-07-05T09:46:02.239Z,25.50
2018-07-05T09:48:29.769Z,25.70
2018-07-05T09:50:58.006Z,25.90
2018-07-05T09:53:25.798Z,25.20
2018-07-05T09:55:53.330Z,24.70
2018-07-05T09:58:20.946Z,25.00
2018-07-05T10:00:50.694Z,25.30
2018-07-05T10:03:19.792Z,25.80
2018-07-05T10:05:47.443Z,25.90
2018-07-05T10:08:15.735Z,25.90
2018-07-05T10:10:43.411Z,26.10
2018-07-05T10:13:11.301Z,26.50
2018-07-05T10:15:38.719Z,26.40
2018-07-05T10:18:06.355Z,26.60
2018-07-05T10:20:34.154Z,26.70
2018-07-05T10:23:01.671Z,27.10
2018-07-05T10:25:29.215Z,27.40
2018-07-05T10:27:56.750Z,27.80
2018-07-05T10:30:42.682Z,28.30
2018-07-05T10:33:28.611Z,28.00
2018-07-05T10:35:57.218Z,28.60
2018-07-05T10:38:24.759Z,28.70
2018-07-05T10:41:10.910Z,28.40
2018-07-05T10:43:57.069Z,28.40
2018-07-05T10:46:43.070Z,28.10
2018-07-05T10:49:29.136Z,28.00
2018-07-05T10:52:15.054Z,27.80
2018-07-05T10:55:01.978Z,27.50
2018-07-05T10:57:47.826Z,27.60
2018-07-05T11:00:35.468Z,27.40
2018-07-05T11:03:21.558Z,27.40
2018-07-05T11:06:07.547Z,28.00
2018-07-05T11:08:53.630Z,28.10
2018-07-05T11:11:41.053Z,28.30
2018-07-05T11:14:27.221Z,28.80
2018-07-05T11:17:13.127Z,29.30
2018-07-05T11:19:59.058Z,29.40
2018-07-05T11:22:44.979Z,29.40
2018-07-05T11:25:30.899Z,29.00
2018-07-05T11:28:10.957Z,28.40
2018-07-05T11:30:56.998Z,27.80
2018-07-05T11:33:43.020Z,27.70
2018-07-05T11:36:28.953Z,27.60
2018-07-05T11:39:14.839Z,27.30
2018-07-05T11:42:00.778Z,27.00
2018-07-05T11:44:46.662Z,26.80
2018-07-05T11:47:32.610Z,26.40
2018-07-05T11:50:18.475Z,26.00
2018-07-05T11:53:04.651Z,25.80
2018-07-05T11:55:50.462Z,26.00
2018-07-05T11:58:36.351Z,26.10
2018-07-05T12:01:22.219Z,26.00
2018-07-05T12:04:02.265Z,25.80
2018-07-05T12:06:48.278Z,25.80
2018-07-05T12:09:34.094Z,26.00
2018-07-05T12:12:19.904Z,26.00
2018-07-05T12:15:05.846Z,26.00
2018-07-05T12:17:51.802Z,25.90
2018-07-05T12:20:38.011Z,25.80
2018-07-05T12:23:24.026Z,25.60
2018-07-05T12:26:09.887Z,25.80
2018-07-05T12:28:55.981Z,25.90
2018-07-05T12:31:41.768Z,26.00
2018-07-05T12:34:27.610Z,26.00
2018-07-05T12:37:13.430Z,26.20
2018-07-05T12:39:59.335Z,26.00
2018-07-05T12:42:39.218Z,26.20
2018-07-05T12:45:25.206Z,26.20
2018-07-05T12:48:11.111Z,26.00
2018-07-05T12:50:56.944Z,25.60
2018-07-05T12:53:43.094Z,25.70
2018-07-05T12:56:28.981Z,25.30
2018-07-05T12:59:14.844Z,25.30
2018-07-05T13:01:54.824Z,25.10
2018-07-05T13:04:40.853Z,25.20
2018-07-05T13:07:26.754Z,25.20
2018-07-05T13:10:12.670Z,25.20
2018-07-05T13:12:58.722Z,24.90
2018-07-05T13:15:44.582Z,24.50
2018-07-05T13:18:30.482Z,24.20
2018-07-05T13:21:16.407Z,24.10
2018-07-05T13:23:56.390Z,24.00
2018-07-05T13:26:42.433Z,24.00
2018-07-05T13:29:28.318Z,23.70
2018-07-05T13:32:14.259Z,23.60
2018-07-05T13:35:01.173Z,23.80
2018-07-05T13:37:47.218Z,23.70
2018-07-05T13:40:33.462Z,23.60
2018-07-05T13:43:19.549Z,23.50
2018-07-05T13:46:05.697Z,23.30
2018-07-05T13:48:52.130Z,23.30
2018-07-05T13:51:38.058Z,23.20
2018-07-05T13:54:24.311Z,23.00
2018-07-05T13:57:04.467Z,22.70
2018-07-05T13:59:50.700Z,22.70
2018-07-05T14:02:36.934Z,22.70
2018-07-05T14:05:23.250Z,22.60
2018-07-05T14:08:09.298Z,22.60
2018-07-05T14:10:55.392Z,22.60
2018-07-05T14:13:42.284Z,22.70
2018-07-05T14:16:28.474Z,22.70
2018-07-05T14:19:18.158Z,22.70
2018-07-05T14:22:05.138Z,22.60
2018-07-05T14:24:45.053Z,22.90
2018-07-05T14:27:31.394Z,23.00
2018-07-05T14:30:17.524Z,23.00
2018-07-05T14:33:03.378Z,23.10
2018-07-05T14:35:49.451Z,23.00
2018-07-05T14:38:37.441Z,23.00
2018-07-05T14:41:23.420Z,22.90
2018-07-05T14:44:09.434Z,22.90
2018-07-05T14:46:55.998Z,22.60
2018-07-05T14:49:41.899Z,22.30
2018-07-05T14:52:27.734Z,22.10
2018-07-05T14:55:13.644Z,22.20
2018-07-05T14:57:59.639Z,22.20
2018-07-05T15:00:45.573Z,22.30
2018-07-05T15:03:31.478Z,22.30
2018-07-05T15:06:17.369Z,22.10
2018-07-05T15:09:03.626Z,22.00
2018-07-05T15:11:49.532Z,22.10
2018-07-05T15:14:35.498Z,22.00
2018-07-05T15:17:21.449Z,22.00
2018-07-05T15:20:07.275Z,22.10
2018-07-05T15:22:53.241Z,22.20
2018-07-05T15:25:39.227Z,22.30
2018-07-05T15:28:25.181Z,22.40
2018-07-05T15:31:11.281Z,22.40
2018-07-05T15:33:57.121Z,22.30
2018-07-05T15:36:42.946Z,22.40
2018-07-05T15:39:28.885Z,22.20
2018-07-05T15:42:14.922Z,22.20
2018-07-05T15:45:00.897Z,22.20
2018-07-05T15:47:46.858Z,22.20
2018-07-05T15:50:32.946Z,22.10
2018-07-05T15:53:19.029Z,22.20
2018-07-05T15:56:04.955Z,22.10
2018-07-05T15:58:50.875Z,22.10
2018-07-05T16:01:36.731Z,22.10
2018-07-05T16:04:22.655Z,22.20
2018-07-05T16:07:08.441Z,22.30
2018-07-05T16:09:54.390Z,22.20
2018-07-05T16:12:40.429Z,22.30
2018-07-05T16:15:26.377Z,22.10
2018-07-05T16:18:12.541Z,22.20
2018-07-05T16:20:58.638Z,22.10
2018-07-05T16:23:45.145Z,22.00
2018-07-05T16:26:31.023Z,22.00
2018-07-05T16:29:17.057Z,21.90
2018-07-05T16:32:03.122Z,21.90
2018-07-05T16:34:49.266Z,21.90
2018-07-05T16:37:35.102Z,21.80
2018-07-05T16:40:21.017Z,21.70
2018-07-05T16:43:06.930Z,21.80
2018-07-05T16:45:53.251Z,21.70
2018-07-05T16:48:39.469Z,21.60
2018-07-05T16:51:25.262Z,21.60
2018-07-05T16:54:11.239Z,21.50
2018-07-05T16:56:57.311Z,21.40
2018-07-05T16:59:43.410Z,21.40
2018-07-05T17:02:29.357Z,21.40
2018-07-05T17:05:15.337Z,21.50
2018-07-05T17:08:01.343Z,21.30
2018-07-05T17:10:47.281Z,21.30
2018-07-05T17:13:33.146Z,21.30
2018-07-05T17:16:19.139Z,21.30
2018-07-05T17:19:05.223Z,21.30
2018-07-05T17:21:51.143Z,21.30
2018-07-05T17:24:37.689Z,21.40
2018-07-05T17:27:23.664Z,21.40
2018-07-05T17:30:09.561Z,21.30
2018-07-05T17:32:55.555Z,21.30
2018-07-05T17:35:41.439Z,21.10
2018-07-05T17:38:27.442Z,21.20
2018-07-05T17:41:13.370Z,21.20
2018-07-05T17:43:59.206Z,21.10
2018-07-05T17:46:45.090Z,21.10
2018-07-05T17:49:31.025Z,21.10
2018-07-05T17:52:16.987Z,21.00
2018-07-05T17:55:02.973Z,21.00
2018-07-05T17:57:42.870Z,20.90
2018-07-05T18:00:28.945Z,21.00
2018-07-05T18:03:14.890Z,21.00
2018-07-05T18:06:00.977Z,21.00
2018-07-05T18:08:48.128Z,21.00
2018-07-05T18:11:34.107Z,21.10
2018-07-05T18:14:20.045Z,21.00
2018-07-05T18:17:05.993Z,21.10
2018-07-05T18:19:52.006Z,21.00
2018-07-05T18:22:37.967Z,21.00
2018-07-05T18:25:17.846Z,21.10
2018-07-05T18:28:04.034Z,21.00
2018-07-05T18:30:49.903Z,21.00
2018-07-05T18:33:35.906Z,21.00
2018-07-05T18:36:21.846Z,21.10
2018-07-05T18:39:07.656Z,21.10
2018-07-05T18:41:53.615Z,21.00
2018-07-05T18:44:39.668Z,21.00
2018-07-05T18:47:25.739Z,20.90
2018-07-05T18:50:11.740Z,20.70
2018-07-05T18:52:57.737Z,20.80
2018-07-05T18:55:43.572Z,20.90
2018-07-05T18:58:29.501Z,21.00
2018-07-05T19:01:15.414Z,21.00
2018-07-05T19:04:01.599Z,20.90
2018-07-05T19:06:47.779Z,20.90
2018-07-05T19:09:33.836Z,20.90
2018-07-05T19:12:21.301Z,20.80
2018-07-05T19:15:07.752Z,20.80
2018-07-05T19:17:54.899Z,20.80
2018-07-05T19:20:41.186Z,20.80
2018-07-05T19:23:27.932Z,20.90
2018-07-05T19:26:14.223Z,20.80
2018-07-05T19:29:00.530Z,20.80
2018-07-05T19:31:46.771Z,20.80
2018-07-05T19:34:33.118Z,20.70
2018-07-05T19:37:19.454Z,20.70
2018-07-05T19:40:05.623Z,20.60
2018-07-05T19:42:51.919Z,20.60
2018-07-05T19:45:38.018Z,20.50
2018-07-05T19:48:24.294Z,20.60
2018-07-05T19:51:10.468Z,20.70
2018-07-05T19:53:56.722Z,20.80
2018-07-05T19:56:42.831Z,20.70
2018-07-05T19:59:22.849Z,20.70
2018-07-05T20:02:09.202Z,20.30
2018-07-05T20:04:55.294Z,20.00
2018-07-05T20:07:41.610Z,19.70
2018-07-05T20:10:28.434Z,19.60
2018-07-05T20:13:14.765Z,19.60
2018-07-05T20:16:00.850Z,19.40
2018-07-05T20:18:46.946Z,19.30
2018-07-05T20:21:33.293Z,19.30
2018-07-05T20:24:19.798Z,19.30
2018-07-05T20:27:05.870Z,19.10
2018-07-05T20:29:52.107Z,18.90
2018-07-05T20:32:38.409Z,18.70
2018-07-05T20:35:24.562Z,18.70
2018-07-05T20:38:10.798Z,18.70
2018-07-05T20:40:56.861Z,18.70
2018-07-05T20:43:42.957Z,18.60
2018-07-05T20:46:29.187Z,18.60
2018-07-05T20:49:15.522Z,18.50
2018-07-05T20:52:01.926Z,18.50
2018-07-05T20:54:47.908Z,18.40
2018-07-05T20:57:34.242Z,18.50
2018-07-05T21:00:20.321Z,18.50
2018-07-05T21:03:06.550Z,18.70
2018-07-05T21:05:52.687Z,18.90
2018-07-05T21:08:38.973Z,19.10
2018-07-05T21:11:25.149Z,18.90
2018-07-05T21:14:11.370Z,18.70
2018-07-05T21:16:52.670Z,18.70
2018-07-05T21:19:38.651Z,18.70
2018-07-05T21:22:24.830Z,18.60
2018-07-05T21:25:11.102Z,18.80
2018-07-05T21:27:57.170Z,18.60
2018-07-05T21:30:43.575Z,18.80
2018-07-05T21:33:29.982Z,18.90
2018-07-05T21:36:16.262Z,18.80
2018-07-05T21:39:02.571Z,18.70
2018-07-05T21:41:48.820Z,18.70
2018-07-05T21:44:29.151Z,18.70
2018-07-05T21:47:15.296Z,18.60
2018-07-05T21:50:01.583Z,18.50
2018-07-05T21:52:47.808Z,18.40
2018-07-05T21:55:33.919Z,18.40
2018-07-05T21:58:20.176Z,18.30
2018-07-05T22:01:06.484Z,18.30
2018-07-05T22:03:52.755Z,18.30
2018-07-05T22:06:39.154Z,18.30
2018-07-05T22:09:25.241Z,18.30
2018-07-05T22:12:11.419Z,18.30
2018-07-05T22:14:57.583Z,18.30
2018-07-05T22:17:48.698Z,18.30
2018-07-05T22:20:40.381Z,18.30
2018-07-05T22:23:31.901Z,18.40
2018-07-05T22:26:17.784Z,18.20
2018-07-05T22:29:09.234Z,18.30
2018-07-05T22:31:57.023Z,18.20
2018-07-05T22:34:43.019Z,18.10
2018-07-05T22:37:29.778Z,18.30
2018-07-05T22:40:15.994Z,18.20
2018-07-05T22:43:02.233Z,18.20
2018-07-05T22:45:48.374Z,18.30
2018-07-05T22:48:34.796Z,18.40
2018-07-05T22:51:21.354Z,18.30
2018-07-05T22:54:07.790Z,18.20
2018-07-05T22:56:54.011Z,18.20
2018-07-05T22:59:34.897Z,18.20
2018-07-05T23:02:21.080Z,18.10
2018-07-05T23:05:07.263Z,18.30
2018-07-05T23:07:53.534Z,18.30
2018-07-05T23:10:34.921Z,18.40
2018-07-05T23:13:21.046Z,18.20
2018-07-05T23:16:01.293Z,18.40
2018-07-05T23:18:47.703Z,18.20
2018-07-05T23:21:33.883Z,18.10
2018-07-05T23:24:20.342Z,18.20
2018-07-05T23:27:06.598Z,18.30
2018-07-05T23:29:52.889Z,18.20
2018-07-05T23:32:39.130Z,18.20
2018-07-05T23:35:25.343Z,18.10
2018-07-05T23:38:11.722Z,18.10
2018-07-05T23:40:57.738Z,18.10
2018-07-05T23:43:43.834Z,18.00
2018-07-05T23:46:30.310Z,17.90
2018-07-05T23:49:16.434Z,17.90
2018-07-05T23:52:02.226Z,17.90
2018-07-05T23:54:48.310Z,18.00
2018-07-05T23:57:34.332Z,18.00
